Time;durP1;ratioP1;P1;durP2;ratioP2;P2;SDS_P1;SDS_P2;PMS_P1;PMS_P2;Temp;Humidity;BMP_temperature;BMP_pressure;BME280_temperature;BME280_humidity;BME280_pressure;Samples;Min_cycle;Max_cycle;Signal;HPM_P1;HPM_P2
2022/01/24 00:01:52;;;;;;;60.58;22.27;;;;;;;;;;5051627;28;20021;-66
2022/01/24 00:04:20;;;;;;;58.33;22.05;;;;;;;;;;5051980;28;20025;-66
2022/01/24 00:06:46;;;;;;;61.03;23.05;;;;;;;;;;5044019;28;20424;-66
2022/01/24 00:09:13;;;;;;;55.08;22.38;;;;;;;;;;5014362;28;20029;-66
2022/01/24 00:27:22;;;;;;;66.05;24.05;;;;;;;;;;5051002;28;20501;-66
2022/01/24 00:29:48;;;;;;;69.45;25.50;;;;;;;;;;5033815;28;20017;-66
2022/01/24 00:32:15;;;;;;;64.82;22.92;;;;;;;;;;5033741;28;20037;-66
2022/01/24 00:34:41;;;;;;;71.32;23.88;;;;;;;;;;5051554;28;20025;-66
2022/01/24 00:37:07;;;;;;;60.28;24.30;;;;;;;;;;5032494;28;20036;-66
2022/01/24 00:39:33;;;;;;;79.68;26.67;;;;;;;;;;5031126;28;20127;-66
2022/01/24 00:47:11;;;;;;;76.07;25.88;;;;;;;;;;5048883;28;20040;-66
2022/01/24 00:54:57;;;;;;;75.72;26.02;;;;;;;;;;5053078;28;20095;-66
2022/01/24 00:57:24;;;;;;;85.38;27.15;;;;;;;;;;5055327;28;20579;-66
2022/01/24 00:59:50;;;;;;;80.32;26.60;;;;;;;;;;5054989;28;20484;-66
2022/01/24 01:02:17;;;;;;;80.95;28.67;;;;;;;;;;5042186;28;20051;-66
2022/01/24 01:07:10;;;;;;;84.25;28.10;;;;;;;;;;5055013;28;20477;-66
2022/01/24 01:18:11;;;;;;;80.35;27.77;;;;;;;;;;5034731;28;20452;-66
2022/01/24 01:23:19;;;;;;;89.60;31.38;;;;;;;;;;5045170;28;20569;-66
2022/01/24 01:25:46;;;;;;;90.68;29.23;;;;;;;;;;5054371;28;20021;-66
2022/01/24 01:28:13;;;;;;;86.50;27.80;;;;;;;;;;5053951;28;20029;-66
2022/01/24 01:30:44;;;;;;;86.35;28.42;;;;;;;;;;5051047;28;20539;-66
2022/01/24 01:33:20;;;;;;;91.82;29.60;;;;;;;;;;5034609;28;20128;-66
2022/01/24 01:36:27;;;;;;;92.35;29.83;;;;;;;;;;5034334;28;20108;-66
2022/01/24 01:52:48;;;;;;;91.93;30.77;;;;;;;;;;5034623;28;20120;-66
2022/01/24 01:55:26;;;;;;;92.70;30.27;;;;;;;;;;5035695;28;20029;-66
2022/01/24 01:57:52;;;;;;;99.20;32.22;;;;;;;;;;5051148;28;20544;-66
2022/01/24 02:00:19;;;;;;;92.53;31.50;;;;;;;;;;5038274;28;20060;-66
2022/01/24 02:02:46;;;;;;;97.25;31.25;;;;;;;;;;5033875;28;20096;-66
2022/01/24 02:05:12;;;;;;;95.68;30.85;;;;;;;;;;5033963;28;20450;-66
2022/01/24 02:07:51;;;;;;;87.03;30.33;;;;;;;;;;5033135;28;20401;-66
2022/01/24 02:10:18;;;;;;;79.80;27.45;;;;;;;;;;5033812;28;20071;-66
2022/01/24 02:12:45;;;;;;;90.63;28.55;;;;;;;;;;5033846;28;20108;-66
2022/01/24 02:15:15;;;;;;;80.65;28.33;;;;;;;;;;5034040;28;20414;-66
2022/01/24 02:23:48;;;;;;;71.78;25.30;;;;;;;;;;5052820;28;20055;-66
2022/01/24 02:25:48;;;;;;;61.72;23.70;;;;;;;;;;5041649;28;20394;-66
2022/01/24 02:28:16;;;;;;;68.50;23.65;;;;;;;;;;5053455;28;20052;-66
2022/01/24 02:33:32;;;;;;;64.75;23.92;;;;;;;;;;5052409;28;20448;-66
2022/01/24 02:35:58;;;;;;;60.13;20.75;;;;;;;;;;5052751;28;20021;-66
2022/01/24 02:48:23;;;;;;;69.13;23.67;;;;;;;;;;5053216;28;20107;-66
2022/01/24 02:49:25;;;;;;;57.15;20.23;;;;;;;;;;5052521;28;20445;-66
2022/01/24 02:51:51;;;;;;;66.63;22.27;;;;;;;;;;5037855;28;20076;-66
2022/01/24 02:54:26;;;;;;;56.42;21.50;;;;;;;;;;5033190;28;20060;-66
2022/01/24 02:56:53;;;;;;;66.90;22.90;;;;;;;;;;5033138;28;20041;-66
2022/01/24 02:59:19;;;;;;;69.82;23.75;;;;;;;;;;5039009;28;20474;-66
2022/01/24 03:01:45;;;;;;;61.83;23.30;;;;;;;;;;5052926;28;20121;-66
2022/01/24 03:04:12;;;;;;;65.97;22.92;;;;;;;;;;5052655;28;20029;-66
2022/01/24 03:06:38;;;;;;;73.07;24.38;;;;;;;;;;5052639;28;20021;-66
2022/01/24 03:09:05;;;;;;;60.90;22.65;;;;;;;;;;5052118;28;20029;-66
2022/01/24 03:11:55;;;;;;;74.07;23.65;;;;;;;;;;5052902;28;20033;-66
2022/01/24 03:14:18;;;;;;;64.90;23.85;;;;;;;;;;5052517;28;20041;-66
2022/01/24 03:16:44;;;;;;;64.25;23.15;;;;;;;;;;5052561;28;20404;-66
2022/01/24 03:19:11;;;;;;;79.32;25.33;;;;;;;;;;5041183;28;20033;-66
2022/01/24 03:21:37;;;;;;;60.25;22.50;;;;;;;;;;5032819;28;20037;-66
2022/01/24 03:24:03;;;;;;;60.97;20.98;;;;;;;;;;5032995;28;20608;-66
2022/01/24 03:26:29;;;;;;;60.80;21.40;;;;;;;;;;5052584;28;20021;-66
2022/01/24 03:28:55;;;;;;;57.88;21.45;;;;;;;;;;5048236;28;20030;-66
2022/01/24 03:31:22;;;;;;;59.33;20.83;;;;;;;;;;5032352;28;20496;-66
2022/01/24 03:33:48;;;;;;;62.95;24.25;;;;;;;;;;5014499;28;20413;-66
2022/01/24 03:36:14;;;;;;;67.95;22.38;;;;;;;;;;5041318;28;20025;-66
2022/01/24 03:38:40;;;;;;;69.00;24.33;;;;;;;;;;5052076;28;20041;-66
2022/01/24 03:41:06;;;;;;;65.05;22.48;;;;;;;;;;5051707;28;20409;-66
2022/01/24 03:43:33;;;;;;;59.97;24.23;;;;;;;;;;5052412;28;20069;-66
2022/01/24 03:48:42;;;;;;;59.60;23.48;;;;;;;;;;5051925;28;20032;-66
2022/01/24 03:51:08;;;;;;;67.57;21.38;;;;;;;;;;5042995;28;20040;-66
2022/01/24 03:53:34;;;;;;;72.38;26.40;;;;;;;;;;5032117;28;20029;-66
2022/01/24 03:56:00;;;;;;;52.38;20.42;;;;;;;;;;5040820;28;20032;-66
2022/01/24 03:58:26;;;;;;;54.97;21.15;;;;;;;;;;5031979;28;20025;-66
2022/01/24 04:00:52;;;;;;;60.28;22.33;;;;;;;;;;5036992;28;20193;-66
2022/01/24 04:03:18;;;;;;;57.30;20.23;;;;;;;;;;5031671;28;20100;-66
2022/01/24 04:05:45;;;;;;;59.42;21.05;;;;;;;;;;5036996;28;20112;-66
2022/01/24 04:08:11;;;;;;;50.08;20.20;;;;;;;;;;5047824;28;20498;-66
2022/01/24 04:10:44;;;;;;;45.85;18.95;;;;;;;;;;5041253;28;20407;-66
2022/01/24 04:18:34;;;;;;;50.75;19.35;;;;;;;;;;5049137;28;20041;-66
2022/01/24 04:21:23;;;;;;;55.03;21.13;;;;;;;;;;5031781;28;20068;-66
2022/01/24 04:23:56;;;;;;;56.88;20.13;;;;;;;;;;5015213;28;20493;-66
2022/01/24 04:26:22;;;;;;;56.08;21.33;;;;;;;;;;5031728;28;20021;-66
2022/01/24 04:28:48;;;;;;;52.50;20.42;;;;;;;;;;5038495;28;20021;-66
2022/01/24 04:31:15;;;;;;;54.45;20.30;;;;;;;;;;5022311;28;20044;-66
2022/01/24 04:33:41;;;;;;;51.47;20.17;;;;;;;;;;5053148;28;20373;-66
2022/01/24 04:36:07;;;;;;;53.42;19.73;;;;;;;;;;5045592;28;20501;-66
2022/01/24 04:38:33;;;;;;;55.30;20.08;;;;;;;;;;5030890;28;20051;-65
2022/01/24 04:41:04;;;;;;;44.28;17.00;;;;;;;;;;5055597;28;20033;-66
2022/01/24 04:46:28;;;;;;;51.53;18.65;;;;;;;;;;5055113;28;20453;-66
2022/01/24 04:54:39;;;;;;;56.13;18.90;;;;;;;;;;5048468;28;20033;-66
2022/01/24 04:57:07;;;;;;;50.67;19.30;;;;;;;;;;5047693;28;20385;-66
2022/01/24 04:59:34;;;;;;;50.08;18.27;;;;;;;;;;5048010;28;20039;-66
2022/01/24 05:02:00;;;;;;;52.17;19.02;;;;;;;;;;5050294;28;20028;-66
2022/01/24 05:04:26;;;;;;;59.22;21.23;;;;;;;;;;5048813;28;20056;-66
2022/01/24 05:06:52;;;;;;;51.38;20.73;;;;;;;;;;5049789;28;20048;-66
2022/01/24 05:09:20;;;;;;;62.78;21.77;;;;;;;;;;5049057;28;20406;-67
2022/01/24 05:11:58;;;;;;;50.83;18.83;;;;;;;;;;5049020;28;20063;-66
2022/01/24 05:25:23;;;;;;;46.17;17.85;;;;;;;;;;5029933;28;20548;-66
2022/01/24 05:27:49;;;;;;;53.83;18.83;;;;;;;;;;5047734;28;20111;-66
2022/01/24 05:30:16;;;;;;;46.65;18.48;;;;;;;;;;5043376;28;20115;-66
2022/01/24 05:32:44;;;;;;;44.15;18.95;;;;;;;;;;5036180;28;20645;-66
2022/01/24 05:35:10;;;;;;;48.22;19.65;;;;;;;;;;5049809;28;20065;-66
2022/01/24 05:37:36;;;;;;;51.58;18.80;;;;;;;;;;5053605;28;20032;-66
2022/01/24 05:40:03;;;;;;;46.97;18.20;;;;;;;;;;5034242;28;20142;-66
2022/01/24 05:42:29;;;;;;;45.83;18.40;;;;;;;;;;5050120;28;20029;-66
2022/01/24 05:44:55;;;;;;;47.80;18.52;;;;;;;;;;5050374;28;20031;-66
2022/01/24 05:47:21;;;;;;;53.78;20.73;;;;;;;;;;5039470;28;20116;-66
2022/01/24 05:49:47;;;;;;;55.17;18.35;;;;;;;;;;5048224;28;20025;-66
2022/01/24 05:52:13;;;;;;;50.42;20.83;;;;;;;;;;5050939;28;20037;-66
2022/01/24 05:54:40;;;;;;;53.85;19.90;;;;;;;;;;5035107;28;20029;-66
2022/01/24 05:57:07;;;;;;;43.63;18.42;;;;;;;;;;5042935;28;20057;-66
2022/01/24 05:59:33;;;;;;;43.85;17.45;;;;;;;;;;5042377;28;20033;-66
2022/01/24 06:01:59;;;;;;;54.67;20.48;;;;;;;;;;5044136;28;20041;-66
2022/01/24 06:04:25;;;;;;;44.08;18.98;;;;;;;;;;5051238;28;20029;-66
2022/01/24 06:06:52;;;;;;;45.30;17.85;;;;;;;;;;5033378;28;20021;-66
2022/01/24 06:09:18;;;;;;;49.58;18.63;;;;;;;;;;5045627;28;20017;-66
2022/01/24 06:11:44;;;;;;;53.83;18.08;;;;;;;;;;5033503;28;20034;-66
2022/01/24 06:14:11;;;;;;;48.17;18.38;;;;;;;;;;5038368;28;20040;-66
2022/01/24 06:16:37;;;;;;;39.55;16.42;;;;;;;;;;5019465;28;20431;-66
2022/01/24 06:19:04;;;;;;;43.63;15.93;;;;;;;;;;5015368;28;20029;-66
2022/01/24 06:21:30;;;;;;;40.85;16.65;;;;;;;;;;5042968;28;20033;-66
2022/01/24 06:23:56;;;;;;;37.42;15.13;;;;;;;;;;5051184;28;20499;-66
2022/01/24 06:26:22;;;;;;;35.72;15.52;;;;;;;;;;5040488;28;20108;-66
2022/01/24 06:28:48;;;;;;;37.80;15.80;;;;;;;;;;5051298;28;20032;-66
2022/01/24 06:31:14;;;;;;;39.75;15.65;;;;;;;;;;5049594;28;20035;-66
2022/01/24 06:33:40;;;;;;;38.50;15.75;;;;;;;;;;5024909;28;20041;-66
2022/01/24 06:36:07;;;;;;;37.78;15.77;;;;;;;;;;5049317;28;20040;-66
2022/01/24 06:38:33;;;;;;;35.03;15.10;;;;;;;;;;5045008;28;20033;-66
2022/01/24 06:40:59;;;;;;;36.13;15.15;;;;;;;;;;5038838;28;20068;-66
2022/01/24 06:43:25;;;;;;;36.08;16.27;;;;;;;;;;5028121;28;20084;-66
2022/01/24 06:45:51;;;;;;;32.65;14.02;;;;;;;;;;5035285;28;20535;-66
2022/01/24 06:48:17;;;;;;;36.00;15.38;;;;;;;;;;5049976;28;20025;-66
2022/01/24 06:50:44;;;;;;;40.05;15.57;;;;;;;;;;5025629;28;20500;-66
2022/01/24 06:53:10;;;;;;;32.60;14.57;;;;;;;;;;5045341;28;20029;-66
2022/01/24 06:55:36;;;;;;;30.50;14.63;;;;;;;;;;5036510;28;20088;-66
2022/01/24 06:58:02;;;;;;;39.13;15.43;;;;;;;;;;5043209;28;20028;-66
2022/01/24 07:00:30;;;;;;;37.03;15.45;;;;;;;;;;5048061;28;20485;-66
2022/01/24 07:02:57;;;;;;;32.75;15.07;;;;;;;;;;5046738;28;20064;-66
2022/01/24 07:05:24;;;;;;;33.92;15.82;;;;;;;;;;5045003;28;20029;-66
2022/01/24 07:07:50;;;;;;;33.13;15.10;;;;;;;;;;5045830;28;20071;-70
2022/01/24 07:10:16;;;;;;;37.92;15.48;;;;;;;;;;5047834;28;20033;-65
2022/01/24 07:12:42;;;;;;;39.00;15.00;;;;;;;;;;5050483;28;20052;-65
2022/01/24 07:15:13;;;;;;;34.70;14.48;;;;;;;;;;5049993;28;20040;-65
2022/01/24 07:20:18;;;;;;;29.95;13.05;;;;;;;;;;5038623;28;20041;-65
2022/01/24 07:22:44;;;;;;;28.35;13.90;;;;;;;;;;5049071;28;20031;-65
2022/01/24 07:25:10;;;;;;;35.95;14.40;;;;;;;;;;5022512;28;20045;-65
2022/01/24 07:27:36;;;;;;;32.10;13.82;;;;;;;;;;5039817;28;20029;-65
2022/01/24 07:30:03;;;;;;;29.98;13.95;;;;;;;;;;5045311;28;20124;-65
2022/01/24 07:32:30;;;;;;;32.63;13.52;;;;;;;;;;5047901;28;20489;-65
2022/01/24 07:34:56;;;;;;;31.92;16.25;;;;;;;;;;5043291;28;20021;-64
2022/01/24 07:37:23;;;;;;;49.83;22.77;;;;;;;;;;5031682;28;20106;-65
2022/01/24 07:39:49;;;;;;;38.85;17.65;;;;;;;;;;5041248;28;20060;-65
2022/01/24 07:42:26;;;;;;;45.55;23.38;;;;;;;;;;5045164;28;20037;-64
2022/01/24 07:44:52;;;;;;;38.20;18.00;;;;;;;;;;5047437;28;20024;-67
2022/01/24 07:47:18;;;;;;;40.50;17.80;;;;;;;;;;5025104;28;20102;-67
2022/01/24 07:49:44;;;;;;;31.45;15.25;;;;;;;;;;5036474;28;20028;-67
2022/01/24 07:52:11;;;;;;;36.95;16.02;;;;;;;;;;5047847;28;20056;-71
2022/01/24 07:54:37;;;;;;;28.10;14.30;;;;;;;;;;5046845;28;20385;-70
2022/01/24 07:57:03;;;;;;;28.42;15.32;;;;;;;;;;5047942;28;20420;-67
2022/01/24 07:59:29;;;;;;;27.17;15.13;;;;;;;;;;5044277;28;20025;-67
2022/01/24 08:01:55;;;;;;;27.05;12.73;;;;;;;;;;5022305;28;20025;-67
2022/01/24 08:04:21;;;;;;;33.83;13.57;;;;;;;;;;5041258;28;20075;-67
2022/01/24 08:06:49;;;;;;;50.50;20.17;;;;;;;;;;5044081;28;20048;-67
2022/01/24 08:09:15;;;;;;;38.95;17.58;;;;;;;;;;5043727;28;20370;-67
2022/01/24 08:11:42;;;;;;;29.35;14.13;;;;;;;;;;5026590;28;20505;-67
2022/01/24 08:14:09;;;;;;;27.20;12.95;;;;;;;;;;5047834;28;20087;-67
2022/01/24 08:16:37;;;;;;;26.02;12.45;;;;;;;;;;5048050;28;20029;-67
2022/01/24 08:19:03;;;;;;;26.60;13.45;;;;;;;;;;5042535;28;20099;-67
2022/01/24 08:21:29;;;;;;;27.98;13.35;;;;;;;;;;5049377;28;20025;-67
2022/01/24 08:23:56;;;;;;;31.67;15.93;;;;;;;;;;5036776;28;20033;-67
2022/01/24 08:26:22;;;;;;;38.67;14.63;;;;;;;;;;5050975;28;20112;-67
2022/01/24 08:28:48;;;;;;;28.38;14.55;;;;;;;;;;5042451;28;20032;-67
2022/01/24 08:31:15;;;;;;;30.95;14.35;;;;;;;;;;5029556;28;20612;-67
2022/01/24 08:33:41;;;;;;;32.33;14.63;;;;;;;;;;5028161;28;20370;-67
2022/01/24 08:36:07;;;;;;;25.52;13.45;;;;;;;;;;5043207;28;20055;-67
2022/01/24 08:38:35;;;;;;;27.08;12.90;;;;;;;;;;5022685;28;20056;-67
2022/01/24 08:41:08;;;;;;;29.70;14.48;;;;;;;;;;5050987;28;20032;-67
2022/01/24 08:43:57;;;;;;;33.25;15.75;;;;;;;;;;5048722;28;20040;-67
2022/01/24 08:46:23;;;;;;;32.28;13.88;;;;;;;;;;5050198;28;20041;-67
2022/01/24 08:48:49;;;;;;;34.78;15.70;;;;;;;;;;5049567;28;20461;-67
2022/01/24 08:51:15;;;;;;;28.17;13.95;;;;;;;;;;5053437;28;20025;-67
2022/01/24 08:53:42;;;;;;;34.83;14.32;;;;;;;;;;5051864;28;20033;-67
2022/01/24 08:56:10;;;;;;;33.67;15.35;;;;;;;;;;5050242;28;20112;-67
2022/01/24 08:58:37;;;;;;;36.53;15.23;;;;;;;;;;5046768;28;20029;-67
2022/01/24 09:01:03;;;;;;;32.25;14.55;;;;;;;;;;5049663;28;20033;-67
2022/01/24 09:03:35;;;;;;;37.67;15.15;;;;;;;;;;5044580;28;20128;-67
2022/01/24 09:06:02;;;;;;;30.17;15.30;;;;;;;;;;5048348;28;20033;-67
2022/01/24 09:08:30;;;;;;;36.75;16.10;;;;;;;;;;5048800;28;20021;-67
2022/01/24 09:10:56;;;;;;;39.25;17.73;;;;;;;;;;5050153;28;20032;-67
2022/01/24 09:13:22;;;;;;;40.55;16.75;;;;;;;;;;5053632;28;20431;-67
2022/01/24 09:15:49;;;;;;;37.17;15.40;;;;;;;;;;5023043;28;20030;-67
2022/01/24 09:18:16;;;;;;;52.17;22.27;;;;;;;;;;5044859;28;20037;-67
2022/01/24 09:20:42;;;;;;;39.17;15.98;;;;;;;;;;5053359;28;20116;-67
2022/01/24 09:23:09;;;;;;;40.42;16.35;;;;;;;;;;5052234;28;20037;-67
2022/01/24 09:25:36;;;;;;;36.58;15.25;;;;;;;;;;5054147;28;20044;-67
2022/01/24 09:28:02;;;;;;;33.10;14.82;;;;;;;;;;5053185;28;20071;-67
2022/01/24 09:30:30;;;;;;;39.30;18.23;;;;;;;;;;5048607;28;20030;-67
2022/01/24 09:32:56;;;;;;;39.90;18.60;;;;;;;;;;5047990;28;20020;-67
2022/01/24 09:35:23;;;;;;;50.33;19.77;;;;;;;;;;5052715;28;20087;-67
2022/01/24 09:37:51;;;;;;;34.80;15.50;;;;;;;;;;5048668;28;20029;-67
2022/01/24 09:40:17;;;;;;;43.40;16.95;;;;;;;;;;5047008;28;20073;-67
2022/01/24 09:42:45;;;;;;;40.45;15.65;;;;;;;;;;5057078;28;20165;-67
2022/01/24 09:45:11;;;;;;;38.17;16.98;;;;;;;;;;5054316;28;20432;-65
2022/01/24 09:47:38;;;;;;;41.17;17.70;;;;;;;;;;5044326;28;20517;-65
2022/01/24 09:50:05;;;;;;;47.78;19.80;;;;;;;;;;5035827;28;20593;-65
2022/01/24 09:52:31;;;;;;;45.00;19.65;;;;;;;;;;5056798;28;20021;-65
2022/01/24 09:54:58;;;;;;;56.88;21.30;;;;;;;;;;5048527;28;20385;-65
2022/01/24 09:57:24;;;;;;;43.97;19.60;;;;;;;;;;5045780;28;20048;-67
2022/01/24 09:59:50;;;;;;;41.63;18.88;;;;;;;;;;5049614;28;20505;-67
2022/01/24 10:02:16;;;;;;;49.13;18.88;;;;;;;;;;5052822;28;20035;-69
2022/01/24 10:04:42;;;;;;;44.58;19.58;;;;;;;;;;5049531;28;20024;-67
2022/01/24 10:07:12;;;;;;;46.33;18.98;;;;;;;;;;5051067;28;20223;-67
2022/01/24 10:09:45;;;;;;;45.58;19.10;;;;;;;;;;5056592;28;20518;-67
2022/01/24 10:17:48;;;;;;;46.55;18.88;;;;;;;;;;5046018;28;20455;-67
2022/01/24 10:20:17;;;;;;;44.40;19.55;;;;;;;;;;5042841;28;20087;-72
2022/01/24 10:22:59;;;;;;;50.28;20.75;;;;;;;;;;5046457;28;20020;-68
2022/01/24 10:25:25;;;;;;;47.40;17.20;;;;;;;;;;5050420;28;20052;-68
2022/01/24 10:27:59;;;;;;;48.83;19.85;;;;;;;;;;5052881;28;20028;-68
2022/01/24 10:30:27;;;;;;;46.92;19.45;;;;;;;;;;5041420;28;20508;-68
2022/01/24 10:32:55;;;;;;;41.75;18.60;;;;;;;;;;5022695;28;20581;-68
2022/01/24 10:35:31;;;;;;;47.90;20.10;;;;;;;;;;5049182;28;20021;-68
2022/01/24 10:38:15;;;;;;;42.88;19.63;;;;;;;;;;5046046;28;20396;-68
2022/01/24 10:40:53;;;;;;;51.22;21.85;;;;;;;;;;5052056;28;20127;-68
2022/01/24 10:43:21;;;;;;;42.90;19.85;;;;;;;;;;5038031;28;20399;-68
2022/01/24 10:45:48;;;;;;;45.50;20.08;;;;;;;;;;5043280;28;20021;-68
2022/01/24 10:48:14;;;;;;;52.25;20.17;;;;;;;;;;5047871;28;20048;-68
2022/01/24 10:50:40;;;;;;;49.95;20.58;;;;;;;;;;5045187;28;20076;-69
2022/01/24 10:53:14;;;;;;;44.30;20.55;;;;;;;;;;5025546;28;20138;-68
2022/01/24 10:55:42;;;;;;;46.85;18.98;;;;;;;;;;5043851;28;20497;-68
2022/01/24 10:58:18;;;;;;;52.67;22.00;;;;;;;;;;5041111;28;20052;-68
2022/01/24 11:00:45;;;;;;;48.47;21.55;;;;;;;;;;5043850;28;20374;-68
2022/01/24 11:03:18;;;;;;;48.08;21.23;;;;;;;;;;5045163;28;20029;-68
2022/01/24 11:05:45;;;;;;;42.42;19.92;;;;;;;;;;5046512;28;20390;-68
2022/01/24 11:08:12;;;;;;;50.13;19.98;;;;;;;;;;5044369;28;20436;-68
2022/01/24 11:10:45;;;;;;;45.45;20.65;;;;;;;;;;5045600;28;20108;-68
2022/01/24 11:13:12;;;;;;;42.75;18.85;;;;;;;;;;5041793;28;20074;-68
2022/01/24 11:15:41;;;;;;;44.42;18.95;;;;;;;;;;5045992;28;20112;-68
2022/01/24 11:18:09;;;;;;;45.60;19.92;;;;;;;;;;5040747;28;20033;-68
2022/01/24 11:20:40;;;;;;;46.83;19.80;;;;;;;;;;5042138;28;20021;-68
2022/01/24 11:23:06;;;;;;;48.15;19.92;;;;;;;;;;5046950;28;20039;-68
2022/01/24 11:25:35;;;;;;;47.40;20.58;;;;;;;;;;5052354;28;20060;-69
2022/01/24 11:28:01;;;;;;;48.92;20.77;;;;;;;;;;5043563;28;20238;-69
2022/01/24 11:30:29;;;;;;;44.47;20.33;;;;;;;;;;5051211;28;20074;-69
2022/01/24 11:32:55;;;;;;;51.05;20.55;;;;;;;;;;5050092;28;20020;-69
2022/01/24 11:35:41;;;;;;;42.67;18.77;;;;;;;;;;5050251;28;20397;-69
2022/01/24 11:38:26;;;;;;;40.60;19.48;;;;;;;;;;5045921;28;20037;-69
2022/01/24 11:40:59;;;;;;;41.42;17.98;;;;;;;;;;5050393;28;20029;-69
2022/01/24 11:43:26;;;;;;;49.17;19.08;;;;;;;;;;5046360;28;20100;-69
2022/01/24 11:46:01;;;;;;;41.45;18.80;;;;;;;;;;5046339;28;20486;-69
2022/01/24 11:48:27;;;;;;;40.72;19.48;;;;;;;;;;5046061;28;20025;-69
2022/01/24 11:50:58;;;;;;;42.17;19.05;;;;;;;;;;5047675;28;20029;-69
2022/01/24 11:53:29;;;;;;;41.33;18.17;;;;;;;;;;5040223;28;20039;-69
2022/01/24 11:55:56;;;;;;;43.67;20.10;;;;;;;;;;5046665;28;20028;-69
2022/01/24 11:58:23;;;;;;;44.45;19.17;;;;;;;;;;5045285;28;20071;-69
2022/01/24 12:00:51;;;;;;;42.55;20.25;;;;;;;;;;5047015;28;20036;-69
2022/01/24 12:03:23;;;;;;;42.60;18.70;;;;;;;;;;5036753;28;20018;-69
2022/01/24 12:05:53;;;;;;;55.67;25.25;;;;;;;;;;5046289;28;20021;-69
2022/01/24 12:08:28;;;;;;;41.33;19.58;;;;;;;;;;5047983;28;20061;-69
2022/01/24 12:10:58;;;;;;;38.53;18.73;;;;;;;;;;5047834;28;20040;-69
2022/01/24 12:13:28;;;;;;;41.83;18.30;;;;;;;;;;5046223;28;20115;-69
2022/01/24 12:15:54;;;;;;;39.50;18.65;;;;;;;;;;5042977;28;20022;-69
2022/01/24 12:18:24;;;;;;;39.53;18.15;;;;;;;;;;5044688;28;20079;-69
2022/01/24 12:21:10;;;;;;;46.40;18.92;;;;;;;;;;5044021;28;20029;-69
2022/01/24 12:23:39;;;;;;;47.95;18.80;;;;;;;;;;5040130;28;20029;-69
2022/01/24 12:26:08;;;;;;;39.28;17.70;;;;;;;;;;5040560;28;20393;-69
2022/01/24 12:28:43;;;;;;;43.38;18.95;;;;;;;;;;5051511;28;20021;-69
2022/01/24 12:31:23;;;;;;;39.17;18.17;;;;;;;;;;5051236;28;20033;-69
2022/01/24 12:33:55;;;;;;;40.88;19.45;;;;;;;;;;5051070;28;20033;-69
2022/01/24 12:36:52;;;;;;;46.90;21.47;;;;;;;;;;5051002;28;20040;-69
2022/01/24 12:39:26;;;;;;;41.13;19.02;;;;;;;;;;5051320;28;20045;-69
2022/01/24 12:41:58;;;;;;;42.47;19.83;;;;;;;;;;5051127;28;20076;-69
2022/01/24 12:47:05;;;;;;;48.28;20.98;;;;;;;;;;5037834;28;20105;-69
2022/01/24 12:49:31;;;;;;;40.80;18.83;;;;;;;;;;5036097;28;20027;-69
2022/01/24 12:52:02;;;;;;;49.47;20.75;;;;;;;;;;5039764;28;20397;-69
2022/01/24 12:54:32;;;;;;;49.67;20.77;;;;;;;;;;5031546;28;20049;-69
2022/01/24 12:56:59;;;;;;;45.47;20.27;;;;;;;;;;5046734;28;20021;-69
2022/01/24 12:59:25;;;;;;;42.40;19.70;;;;;;;;;;5052864;28;20059;-69
2022/01/24 13:01:55;;;;;;;43.70;20.30;;;;;;;;;;5048997;28;20040;-69
2022/01/24 13:04:30;;;;;;;52.03;20.27;;;;;;;;;;5043552;28;20091;-69
2022/01/24 13:06:57;;;;;;;46.10;20.13;;;;;;;;;;5045824;28;20043;-69
2022/01/24 13:09:26;;;;;;;42.78;19.15;;;;;;;;;;5050345;28;20036;-69
2022/01/24 13:11:57;;;;;;;42.00;18.98;;;;;;;;;;5048854;28;20028;-69
2022/01/24 13:14:30;;;;;;;42.63;20.80;;;;;;;;;;5051935;28;20400;-69
2022/01/24 13:25:03;;;;;;;48.30;19.40;;;;;;;;;;5058283;28;20078;-69
2022/01/24 13:27:35;;;;;;;53.13;19.90;;;;;;;;;;5046230;28;20029;-69
2022/01/24 13:30:03;;;;;;;52.92;23.70;;;;;;;;;;5044428;28;20057;-69
2022/01/24 13:32:50;;;;;;;44.80;20.85;;;;;;;;;;5052161;28;20075;-69
2022/01/24 13:35:18;;;;;;;44.78;20.00;;;;;;;;;;5029669;28;20067;-69
2022/01/24 13:37:44;;;;;;;40.40;18.70;;;;;;;;;;5051047;28;20043;-69
2022/01/24 13:40:11;;;;;;;43.25;19.67;;;;;;;;;;5032749;28;20057;-69
2022/01/24 13:42:37;;;;;;;39.45;19.38;;;;;;;;;;5046827;28;20035;-69
2022/01/24 13:45:07;;;;;;;38.53;18.25;;;;;;;;;;5056985;28;20060;-69
2022/01/24 13:47:33;;;;;;;40.83;18.73;;;;;;;;;;5049314;28;20115;-69
2022/01/24 13:49:59;;;;;;;39.72;20.15;;;;;;;;;;5050446;28;20170;-69
2022/01/24 13:52:26;;;;;;;40.40;19.00;;;;;;;;;;5051312;28;20062;-69
2022/01/24 13:54:52;;;;;;;48.72;19.85;;;;;;;;;;5050246;28;20031;-69
2022/01/24 13:57:18;;;;;;;47.47;19.25;;;;;;;;;;5041734;28;20047;-69
2022/01/24 13:59:45;;;;;;;42.65;19.20;;;;;;;;;;5044440;28;20033;-69
2022/01/24 14:02:11;;;;;;;41.35;18.77;;;;;;;;;;5047040;28;20439;-69
2022/01/24 14:04:38;;;;;;;40.78;20.20;;;;;;;;;;5047485;28;20032;-69
2022/01/24 14:07:15;;;;;;;41.10;19.67;;;;;;;;;;5049741;28;20427;-69
2022/01/24 14:09:52;;;;;;;41.63;18.30;;;;;;;;;;5040376;28;20021;-69
2022/01/24 14:12:33;;;;;;;39.55;18.75;;;;;;;;;;5050361;28;20112;-69
2022/01/24 14:15:07;;;;;;;44.65;19.77;;;;;;;;;;5051227;28;20082;-69
2022/01/24 14:20:14;;;;;;;45.38;17.33;;;;;;;;;;5048749;28;20029;-69
2022/01/24 14:22:42;;;;;;;43.30;19.20;;;;;;;;;;5047926;28;20025;-69
2022/01/24 14:25:13;;;;;;;41.38;18.92;;;;;;;;;;5048134;28;20310;-69
2022/01/24 14:27:39;;;;;;;40.95;18.02;;;;;;;;;;5041336;28;20017;-69
2022/01/24 14:30:17;;;;;;;33.13;16.58;;;;;;;;;;5024023;28;20029;-69
2022/01/24 14:33:04;;;;;;;35.92;17.08;;;;;;;;;;5040610;28;20040;-69
2022/01/24 14:35:33;;;;;;;31.98;16.58;;;;;;;;;;5040324;28;20025;-69
2022/01/24 14:37:59;;;;;;;35.53;15.85;;;;;;;;;;5040351;28;20456;-69
2022/01/24 14:40:32;;;;;;;35.80;15.85;;;;;;;;;;5046252;28;20493;-69
2022/01/24 14:44:53;;;;;;;33.15;16.48;;;;;;;;;;5046754;28;20037;-69
2022/01/24 14:45:45;;;;;;;30.13;15.80;;;;;;;;;;5044564;28;20063;-69
2022/01/24 14:48:11;;;;;;;33.63;15.00;;;;;;;;;;5037614;28;20078;-69
2022/01/24 14:50:37;;;;;;;33.28;15.40;;;;;;;;;;5051495;28;20021;-69
2022/01/24 14:53:06;;;;;;;38.08;15.82;;;;;;;;;;5025728;28;20060;-69
2022/01/24 14:55:32;;;;;;;33.20;16.63;;;;;;;;;;5040824;28;20021;-69
2022/01/24 14:57:58;;;;;;;35.88;16.42;;;;;;;;;;5047331;28;20071;-69
2022/01/24 15:00:26;;;;;;;31.35;16.15;;;;;;;;;;5048862;28;20036;-69
2022/01/24 15:02:54;;;;;;;34.78;15.10;;;;;;;;;;5048213;28;20037;-69
2022/01/24 15:05:20;;;;;;;45.00;16.52;;;;;;;;;;5046523;28;20497;-69
2022/01/24 15:07:47;;;;;;;39.53;15.65;;;;;;;;;;5045141;28;20067;-68
2022/01/24 15:10:13;;;;;;;31.65;15.82;;;;;;;;;;5050068;28;20044;-69
2022/01/24 15:12:46;;;;;;;38.20;18.35;;;;;;;;;;5046981;28;20029;-69
2022/01/24 15:15:15;;;;;;;39.95;17.98;;;;;;;;;;5043353;28;20048;-69
2022/01/24 15:24:12;;;;;;;38.22;16.02;;;;;;;;;;5040941;28;20055;-69
2022/01/24 15:25:58;;;;;;;33.35;16.02;;;;;;;;;;5036407;28;20045;-69
2022/01/24 15:28:24;;;;;;;41.35;16.35;;;;;;;;;;5048046;28;20400;-69
2022/01/24 15:30:50;;;;;;;36.80;17.58;;;;;;;;;;5051010;28;20107;-69
2022/01/24 15:33:16;;;;;;;36.45;16.55;;;;;;;;;;5052504;28;20021;-69
2022/01/24 15:35:42;;;;;;;39.20;17.20;;;;;;;;;;5043338;28;20485;-69
2022/01/24 15:38:08;;;;;;;33.40;16.00;;;;;;;;;;5044694;28;20021;-69
2022/01/24 15:40:35;;;;;;;39.72;16.98;;;;;;;;;;5041821;28;20045;-69
2022/01/24 15:48:09;;;;;;;39.50;17.63;;;;;;;;;;5038261;28;20565;-69
2022/01/24 15:50:37;;;;;;;40.40;17.55;;;;;;;;;;5043107;28;20477;-69
2022/01/24 15:53:04;;;;;;;38.10;17.58;;;;;;;;;;5043977;28;20071;-69
2022/01/24 15:55:31;;;;;;;41.28;17.65;;;;;;;;;;5049208;28;20025;-69
2022/01/24 15:57:58;;;;;;;33.78;16.42;;;;;;;;;;5044190;28;20032;-69
2022/01/24 16:00:26;;;;;;;39.90;18.33;;;;;;;;;;5050837;28;20086;-69
2022/01/24 16:02:54;;;;;;;38.88;17.88;;;;;;;;;;5041856;28;20037;-69
2022/01/24 16:05:21;;;;;;;42.83;18.00;;;;;;;;;;5039786;28;20040;-69
2022/01/24 16:07:48;;;;;;;34.55;17.38;;;;;;;;;;5038995;28;20025;-69
2022/01/24 16:10:17;;;;;;;35.45;17.77;;;;;;;;;;5045595;28;20052;-69
2022/01/24 16:12:45;;;;;;;44.95;19.77;;;;;;;;;;5038649;28;20064;-69
2022/01/24 16:15:12;;;;;;;39.78;18.60;;;;;;;;;;5046763;28;20401;-69
2022/01/24 16:17:38;;;;;;;40.05;18.10;;;;;;;;;;5036663;28;20030;-69
2022/01/24 16:20:19;;;;;;;41.15;18.75;;;;;;;;;;5047397;28;20033;-69
2022/01/24 16:25:39;;;;;;;44.97;19.88;;;;;;;;;;5046782;28;20033;-69
2022/01/24 16:28:09;;;;;;;40.47;18.83;;;;;;;;;;5051879;28;20033;-68
2022/01/24 16:30:37;;;;;;;35.92;19.08;;;;;;;;;;5052137;28;20021;-68
2022/01/24 16:33:03;;;;;;;40.08;18.95;;;;;;;;;;5042155;28;20033;-68
2022/01/24 16:35:29;;;;;;;42.88;19.48;;;;;;;;;;5041213;28;20049;-68
2022/01/24 16:37:56;;;;;;;38.88;18.27;;;;;;;;;;5034901;28;20021;-68